createdAt,value
2023-01-06T00:03:10.469Z,6.20
2023-01-06T00:07:11.975Z,4.95
2023-01-06T00:11:15.123Z,5.32
2023-01-06T00:15:17.955Z,4.28
2023-01-06T00:19:19.499Z,7.35
2023-01-06T00:23:21.319Z,5.57
2023-01-06T00:27:22.899Z,6.13
2023-01-06T00:31:24.497Z,4.53
2023-01-06T00:36:00.098Z,4.45
2023-01-06T00:40:52.092Z,3.78
2023-01-06T00:44:53.685Z,4.05
2023-01-06T00:49:04.649Z,4.50
2023-01-06T00:53:08.557Z,6.43
2023-01-06T00:57:10.560Z,6.78
2023-01-06T01:01:12.462Z,8.05
2023-01-06T01:05:14.118Z,5.90
2023-01-06T01:09:22.751Z,5.70
2023-01-06T01:13:25.513Z,4.47
2023-01-06T01:17:29.824Z,10.57
2023-01-06T01:21:31.576Z,4.75
2023-01-06T01:25:33.158Z,4.80
2023-01-06T01:29:34.666Z,6.35
2023-01-06T01:33:37.836Z,4.47
2023-01-06T01:37:39.473Z,10.48
2023-01-06T01:41:41.625Z,6.78
2023-01-06T01:45:47.840Z,6.30
2023-01-06T01:49:54.173Z,5.95
2023-01-06T01:54:00.041Z,5.10
2023-01-06T01:58:09.652Z,5.60
2023-01-06T02:02:12.060Z,6.90
2023-01-06T02:06:20.375Z,5.63
2023-01-06T02:10:26.868Z,6.78
2023-01-06T02:14:29.574Z,6.72
2023-01-06T02:18:53.376Z,6.88
2023-01-06T02:23:15.742Z,4.95
2023-01-06T02:27:36.443Z,6.15
2023-01-06T02:31:51.934Z,5.10
2023-01-06T02:36:15.145Z,6.88
2023-01-06T02:40:50.147Z,6.05
2023-01-06T02:45:07.197Z,5.63
2023-01-06T02:49:32.557Z,9.18
2023-01-06T02:53:43.278Z,5.82
2023-01-06T02:58:03.701Z,5.72
2023-01-06T03:02:09.463Z,6.88
2023-01-06T03:06:15.883Z,5.75
2023-01-06T03:14:32.969Z,5.32
2023-01-06T03:18:36.028Z,9.45
2023-01-06T03:22:39.536Z,5.00
2023-01-06T03:26:44.655Z,6.65
2023-01-06T03:30:55.222Z,6.70
2023-01-06T03:35:18.708Z,5.65
2023-01-06T03:39:47.085Z,6.15
2023-01-06T03:44:04.238Z,6.72
2023-01-06T03:48:09.237Z,5.95
2023-01-06T03:52:23.129Z,4.82
2023-01-06T03:56:29.599Z,5.50
2023-01-06T04:00:36.128Z,5.38
2023-01-06T04:04:40.952Z,5.35
2023-01-06T04:08:43.137Z,6.15
2023-01-06T04:12:45.598Z,5.85
2023-01-06T04:16:50.840Z,6.05
2023-01-06T04:20:52.588Z,4.63
2023-01-06T04:25:00.082Z,6.22
2023-01-06T04:29:03.343Z,4.05
2023-01-06T04:33:05.053Z,5.15
2023-01-06T04:37:06.717Z,7.90
2023-01-06T04:41:08.423Z,5.60
2023-01-06T04:45:10.121Z,10.45
2023-01-06T04:49:11.606Z,8.05
2023-01-06T04:53:13.224Z,4.97
2023-01-06T04:57:14.699Z,7.38
2023-01-06T05:01:16.265Z,6.72
2023-01-06T05:05:17.993Z,6.20
2023-01-06T05:09:19.547Z,8.07
2023-01-06T05:13:21.105Z,7.20
2023-01-06T05:17:22.624Z,6.32
2023-01-06T05:21:25.784Z,6.03
2023-01-06T05:25:27.215Z,6.85
2023-01-06T05:29:28.730Z,3.95
2023-01-06T05:33:31.691Z,5.78
2023-01-06T05:37:33.382Z,9.27
2023-01-06T05:41:34.833Z,5.80
2023-01-06T05:45:36.852Z,5.75
2023-01-06T05:49:38.429Z,5.53
2023-01-06T05:53:42.391Z,7.00
2023-01-06T05:57:43.858Z,10.00
2023-01-06T06:01:45.418Z,9.43
2023-01-06T06:05:47.093Z,9.63
2023-01-06T06:09:48.689Z,7.70
2023-01-06T06:13:55.785Z,5.78
2023-01-06T06:17:57.298Z,7.28
2023-01-06T06:21:58.801Z,10.38
2023-01-06T06:26:00.396Z,9.77
2023-01-06T06:30:02.213Z,7.43
2023-01-06T06:34:04.366Z,8.43
2023-01-06T06:38:05.992Z,9.68
2023-01-06T06:42:07.613Z,8.23
2023-01-06T06:46:10.068Z,11.90
2023-01-06T06:50:12.628Z,9.32
2023-01-06T06:54:14.814Z,8.35
2023-01-06T06:58:16.269Z,7.95
2023-01-06T07:02:18.095Z,11.30
2023-01-06T07:06:22.789Z,8.77
2023-01-06T07:10:24.268Z,12.20
2023-01-06T07:14:25.734Z,13.98
2023-01-06T07:18:27.292Z,10.43
2023-01-06T07:22:28.830Z,12.40
2023-01-06T07:26:30.345Z,10.48
2023-01-06T07:30:32.608Z,11.77
2023-01-06T07:34:34.129Z,10.23
2023-01-06T07:38:35.799Z,10.35
2023-01-06T07:42:37.885Z,10.43
2023-01-06T07:46:39.424Z,12.32
2023-01-06T07:50:40.946Z,10.98
2023-01-06T07:54:42.439Z,13.88
2023-01-06T07:58:44.132Z,10.95
2023-01-06T08:02:45.774Z,10.45
2023-01-06T08:06:47.415Z,11.98
2023-01-06T08:10:49.070Z,13.05
2023-01-06T08:14:50.603Z,9.27
2023-01-06T08:24:45.293Z,10.80
2023-01-06T08:28:46.970Z,13.82
2023-01-06T08:32:49.332Z,10.40
2023-01-06T08:36:52.552Z,11.75
2023-01-06T08:41:28.275Z,11.75
2023-01-06T08:45:30.064Z,10.65
2023-01-06T08:49:31.772Z,7.93
2023-01-06T08:59:38.298Z,9.85
2023-01-06T09:03:39.911Z,8.55
2023-01-06T09:07:41.572Z,8.35
2023-01-06T09:11:45.004Z,6.75
2023-01-06T09:15:48.873Z,7.55
2023-01-06T09:19:50.543Z,7.47
2023-01-06T09:23:52.094Z,8.63
2023-01-06T09:27:53.955Z,9.60
2023-01-06T09:31:55.423Z,8.82
2023-01-06T09:35:57.070Z,8.60
2023-01-06T09:39:59.246Z,6.78
2023-01-06T09:44:16.222Z,6.60
2023-01-06T09:48:26.091Z,7.53
2023-01-06T09:52:47.466Z,7.63
2023-01-06T09:56:56.381Z,9.65
2023-01-06T10:01:01.517Z,7.22
2023-01-06T10:05:20.625Z,6.43
2023-01-06T10:09:35.547Z,7.95
2023-01-06T10:14:05.278Z,7.15
2023-01-06T10:18:33.162Z,8.82
2023-01-06T10:23:19.739Z,7.30
2023-01-06T10:27:36.033Z,6.53
2023-01-06T10:31:41.152Z,7.38
2023-01-06T10:35:42.709Z,6.88
2023-01-06T10:39:46.863Z,6.55
2023-01-06T10:43:48.441Z,5.85
2023-01-06T10:48:40.248Z,6.70
2023-01-06T10:52:44.080Z,6.70
2023-01-06T10:56:55.716Z,5.82
2023-01-06T11:01:23.208Z,5.97
2023-01-06T11:05:27.307Z,6.82
2023-01-06T11:09:41.003Z,5.38
2023-01-06T11:13:49.219Z,6.35
2023-01-06T11:17:51.073Z,7.47
2023-01-06T11:21:52.573Z,3.60
2023-01-06T11:26:12.367Z,2.28
2023-01-06T11:30:28.708Z,4.03
2023-01-06T11:34:31.221Z,2.53
2023-01-06T11:38:42.351Z,2.55
2023-01-06T11:42:48.410Z,2.58
2023-01-06T11:46:59.599Z,2.38
2023-01-06T11:51:04.306Z,3.70
2023-01-06T11:55:08.784Z,2.53
2023-01-06T11:59:14.879Z,1.42
2023-01-06T12:03:20.705Z,3.05
2023-01-06T12:07:57.176Z,2.03
2023-01-06T12:12:05.161Z,2.88
2023-01-06T12:16:23.648Z,1.48
2023-01-06T12:21:14.842Z,4.05
2023-01-06T12:26:29.092Z,2.60
2023-01-06T12:30:51.062Z,3.10
2023-01-06T12:35:15.387Z,2.50
2023-01-06T12:40:02.234Z,3.08
2023-01-06T12:44:22.227Z,2.17
2023-01-06T12:49:14.155Z,2.22
2023-01-06T12:54:29.232Z,2.20
2023-01-06T12:59:06.012Z,2.70
2023-01-06T13:03:41.566Z,2.85
2023-01-06T13:08:25.000Z,4.05
2023-01-06T13:12:36.758Z,2.95
2023-01-06T13:16:47.158Z,1.92
2023-01-06T13:21:01.438Z,2.63
2023-01-06T13:25:15.018Z,2.28
2023-01-06T13:29:23.007Z,1.52
2023-01-06T13:33:51.005Z,1.13
2023-01-06T13:38:06.665Z,3.08
2023-01-06T13:42:15.537Z,5.20
2023-01-06T13:46:20.430Z,2.30
2023-01-06T13:50:24.754Z,2.70
2023-01-06T14:00:29.470Z,1.30
2023-01-06T14:04:41.794Z,3.20
2023-01-06T14:08:58.939Z,2.67
2023-01-06T14:13:03.082Z,12.13
2023-01-06T14:17:05.346Z,1.75
2023-01-06T14:21:18.941Z,2.25
2023-01-06T14:25:23.576Z,4.03
2023-01-06T14:29:40.818Z,2.85
2023-01-06T14:33:51.829Z,2.47
2023-01-06T14:37:59.672Z,2.70
2023-01-06T14:42:09.647Z,1.88
2023-01-06T14:46:26.290Z,1.63
2023-01-06T14:50:49.462Z,2.55
2023-01-06T14:54:53.281Z,3.08
2023-01-06T14:59:13.509Z,1.98
2023-01-06T15:04:05.023Z,1.77
2023-01-06T15:08:10.703Z,3.42
2023-01-06T15:12:32.426Z,4.05
2023-01-06T15:16:41.757Z,3.20
2023-01-06T15:20:43.996Z,3.17
2023-01-06T15:24:46.415Z,2.47
2023-01-06T15:29:02.479Z,2.85
2023-01-06T15:33:04.279Z,3.10
2023-01-06T15:37:08.806Z,2.83
2023-01-06T15:41:31.716Z,2.35
2023-01-06T15:45:33.973Z,1.75
2023-01-06T15:49:42.628Z,2.10
2023-01-06T15:53:47.076Z,2.67
2023-01-06T15:58:22.945Z,4.13
2023-01-06T16:02:32.204Z,2.70
2023-01-06T16:06:37.210Z,2.92
2023-01-06T16:10:38.894Z,2.20
2023-01-06T16:14:43.710Z,3.22
2023-01-06T16:18:46.059Z,3.25
2023-01-06T16:22:55.783Z,2.83
2023-01-06T16:27:02.187Z,4.20
2023-01-06T16:31:10.585Z,2.22
2023-01-06T16:35:18.667Z,2.17
2023-01-06T16:39:20.534Z,2.42
2023-01-06T16:43:22.083Z,1.98
2023-01-06T16:47:23.592Z,2.35
2023-01-06T16:51:25.265Z,2.22
2023-01-06T16:55:27.046Z,2.85
2023-01-06T16:59:35.210Z,2.17
2023-01-06T17:03:37.858Z,2.03
2023-01-06T17:07:39.455Z,2.72
2023-01-06T17:11:41.084Z,2.13
2023-01-06T17:15:43.025Z,4.15
2023-01-06T17:19:45.084Z,2.65
2023-01-06T17:23:53.453Z,3.03
2023-01-06T17:27:55.212Z,2.47
2023-01-06T17:32:02.556Z,2.53
2023-01-06T17:36:04.463Z,3.40
2023-01-06T17:40:17.061Z,2.65
2023-01-06T17:44:25.458Z,2.20
2023-01-06T17:48:27.156Z,3.08
2023-01-06T17:52:35.054Z,5.25
2023-01-06T17:56:36.725Z,1.95
2023-01-06T18:00:38.676Z,3.28
2023-01-06T18:04:40.510Z,2.22
2023-01-06T18:08:42.438Z,2.85
2023-01-06T18:12:43.989Z,4.47
2023-01-06T18:16:47.504Z,2.47
2023-01-06T18:21:04.837Z,3.13
2023-01-06T18:25:15.609Z,3.88
2023-01-06T18:29:21.153Z,3.33
2023-01-06T18:33:22.792Z,2.78
2023-01-06T18:37:27.189Z,3.80
2023-01-06T18:41:28.820Z,3.53
2023-01-06T18:45:36.348Z,2.95
2023-01-06T18:49:38.346Z,3.65
2023-01-06T18:53:45.150Z,2.95
2023-01-06T18:57:55.625Z,4.95
2023-01-06T19:01:57.216Z,4.43
2023-01-06T19:06:10.197Z,3.47
2023-01-06T19:10:30.408Z,2.38
2023-01-06T19:14:34.357Z,2.65
2023-01-06T19:18:37.097Z,3.35
2023-01-06T19:22:38.768Z,2.38
2023-01-06T19:26:41.584Z,3.53
2023-01-06T19:30:56.372Z,2.83
2023-01-06T19:34:58.167Z,1.52
2023-01-06T19:39:02.571Z,3.92
2023-01-06T19:43:15.857Z,3.53
2023-01-06T19:47:24.936Z,2.33
2023-01-06T19:51:34.051Z,2.80
2023-01-06T19:55:35.845Z,2.38
2023-01-06T19:59:37.296Z,2.28
2023-01-06T20:03:43.309Z,3.03
2023-01-06T20:11:46.605Z,2.67
2023-01-06T20:15:48.128Z,3.38
2023-01-06T20:19:49.770Z,2.80
2023-01-06T20:23:51.426Z,3.25
2023-01-06T20:27:53.088Z,3.08
2023-01-06T20:31:54.676Z,3.30
2023-01-06T20:35:56.357Z,3.20
2023-01-06T20:39:58.400Z,3.70
2023-01-06T20:44:00.025Z,3.15
2023-01-06T20:48:01.857Z,4.13
2023-01-06T20:52:03.628Z,4.38
2023-01-06T20:56:05.408Z,3.75
2023-01-06T21:00:09.548Z,3.92
2023-01-06T21:04:11.159Z,4.13
2023-01-06T21:08:12.708Z,4.22
2023-01-06T21:12:14.458Z,3.05
2023-01-06T21:16:16.188Z,3.47
2023-01-06T21:20:17.910Z,3.80
2023-01-06T21:24:19.419Z,4.13
2023-01-06T21:28:20.995Z,4.25
2023-01-06T21:32:22.459Z,4.00
2023-01-06T21:36:23.948Z,2.90
2023-01-06T21:40:25.477Z,15.45
2023-01-06T21:44:27.085Z,4.72
2023-01-06T21:48:28.660Z,8.27
2023-01-06T21:52:30.300Z,7.25
2023-01-06T21:56:33.820Z,8.27
2023-01-06T22:00:35.433Z,5.18
2023-01-06T22:04:36.911Z,14.02
2023-01-06T22:08:39.133Z,12.02
2023-01-06T22:12:43.285Z,9.05
2023-01-06T22:16:45.808Z,9.07
2023-01-06T22:20:47.438Z,5.47
2023-01-06T22:24:52.252Z,6.57
2023-01-06T22:28:53.928Z,5.40
2023-01-06T22:32:55.419Z,7.32
2023-01-06T22:36:57.261Z,8.48
2023-01-06T22:40:58.809Z,8.13
2023-01-06T22:45:00.519Z,5.95
2023-01-06T22:49:02.153Z,5.88
2023-01-06T22:53:03.940Z,4.25
2023-01-06T22:57:05.459Z,5.78
2023-01-06T23:01:08.489Z,5.15
2023-01-06T23:05:10.671Z,5.47
2023-01-06T23:09:12.276Z,5.20
2023-01-06T23:13:13.934Z,5.82
2023-01-06T23:17:15.439Z,6.13
2023-01-06T23:21:21.677Z,4.78
2023-01-06T23:25:23.990Z,5.40
2023-01-06T23:29:25.669Z,6.13
2023-01-06T23:33:30.147Z,4.72
2023-01-06T23:37:33.712Z,3.78
2023-01-06T23:41:36.855Z,6.32
2023-01-06T23:45:38.555Z,5.50
2023-01-06T23:49:40.069Z,6.78
2023-01-06T23:53:42.936Z,3.47
2023-01-06T23:57:44.631Z,6.47
